Time;durP1;ratioP1;P1;durP2;ratioP2;P2;SDS_P1;SDS_P2;PMS_P1;PMS_P2;Temp;Humidity;BMP_temperature;BMP_pressure;BME280_temperature;BME280_humidity;BME280_pressure;Samples;Min_cycle;Max_cycle;Signal;HPM_P1;HPM_P2
2023/10/18 00:01:24;;;;;;;13.48;9.90;;;5.00;99.90;;;;;;2079446;28;20197;-69
2023/10/18 00:02:25;;;;;;;16.67;11.63;;;4.90;99.90;;;;;;2087526;28;20239;-69
2023/10/18 00:03:29;;;;;;;18.33;11.93;;;5.00;99.90;;;;;;2089400;28;20281;-69
2023/10/18 00:04:30;;;;;;;16.63;11.20;;;5.00;99.90;;;;;;2089466;28;20291;-70
2023/10/18 00:05:31;;;;;;;18.20;11.10;;;5.00;99.90;;;;;;2086345;28;20224;-69
2023/10/18 00:06:32;;;;;;;15.93;11.02;;;5.00;99.90;;;;;;2089458;28;20243;-70
2023/10/18 00:07:34;;;;;;;14.93;10.77;;;5.00;99.90;;;;;;2080618;28;20322;-69
2023/10/18 00:08:35;;;;;;;16.40;10.68;;;4.90;99.90;;;;;;2088691;28;20239;-69
2023/10/18 00:09:42;;;;;;;17.17;11.50;;;4.90;99.90;;;;;;2089146;28;20322;-69
2023/10/18 00:10:43;;;;;;;14.02;9.63;;;5.00;99.90;;;;;;2086564;28;20241;-69
2023/10/18 00:11:44;;;;;;;16.38;10.90;;;5.00;99.90;;;;;;2079111;28;20246;-69
2023/10/18 00:12:45;;;;;;;15.23;10.60;;;5.00;99.90;;;;;;2080429;28;20285;-69
2023/10/18 00:13:50;;;;;;;15.60;11.23;;;5.00;99.90;;;;;;2088360;28;20234;-69
2023/10/18 00:14:51;;;;;;;13.85;10.02;;;5.00;99.90;;;;;;2088855;28;20258;-69
2023/10/18 00:16:02;;;;;;;16.57;10.47;;;4.90;99.90;;;;;;2088947;28;20740;-70
2023/10/18 00:17:03;;;;;;;13.13;10.18;;;4.90;99.90;;;;;;2083914;28;20232;-69
2023/10/18 00:18:04;;;;;;;12.97;8.40;;;4.90;99.90;;;;;;2083571;28;20728;-69
2023/10/18 00:19:04;;;;;;;16.00;9.70;;;4.90;99.90;;;;;;2075026;28;20232;-69
2023/10/18 00:20:13;;;;;;;13.17;9.37;;;5.00;99.90;;;;;;2079196;28;20199;-71
2023/10/18 00:21:14;;;;;;;12.68;9.30;;;5.00;99.90;;;;;;2080831;28;20180;-70
2023/10/18 00:22:15;;;;;;;12.77;8.77;;;4.90;99.90;;;;;;2082053;28;20278;-70
2023/10/18 00:23:17;;;;;;;11.95;9.25;;;5.00;99.90;;;;;;2085605;28;20347;-70
2023/10/18 00:24:17;;;;;;;11.73;8.90;;;5.00;99.90;;;;;;2090688;28;20189;-69
2023/10/18 00:25:20;;;;;;;12.07;8.60;;;4.90;99.90;;;;;;2089959;28;20260;-69
2023/10/18 00:26:20;;;;;;;12.65;8.98;;;4.90;99.90;;;;;;2089210;28;20238;-70
2023/10/18 00:27:21;;;;;;;12.07;8.73;;;4.90;99.90;;;;;;2076209;28;20184;-69
2023/10/18 00:28:22;;;;;;;13.50;8.03;;;4.80;99.90;;;;;;2078100;28;20191;-70
2023/10/18 00:29:22;;;;;;;11.47;8.90;;;4.80;99.90;;;;;;2085477;28;20276;-70
2023/10/18 00:30:27;;;;;;;12.60;8.03;;;4.80;99.90;;;;;;2070088;28;20204;-69
2023/10/18 00:31:27;;;;;;;13.35;8.52;;;4.80;99.90;;;;;;2070743;28;20304;-69
2023/10/18 00:32:28;;;;;;;13.53;7.90;;;4.80;99.90;;;;;;2080165;28;20228;-70
2023/10/18 00:33:29;;;;;;;10.03;7.90;;;4.90;99.90;;;;;;2088556;28;20713;-70
2023/10/18 00:34:29;;;;;;;10.27;7.37;;;4.90;99.90;;;;;;2077791;28;20228;-70
2023/10/18 00:35:32;;;;;;;10.40;7.67;;;4.90;99.90;;;;;;2078113;28;20326;-70
2023/10/18 00:36:34;;;;;;;12.02;7.90;;;4.90;99.90;;;;;;2088963;28;20639;-70
2023/10/18 00:37:35;;;;;;;9.57;7.10;;;4.90;99.90;;;;;;2087098;28;20236;-70
2023/10/18 00:38:38;;;;;;;8.80;6.70;;;4.90;99.90;;;;;;2089102;28;20236;-70
2023/10/18 00:39:39;;;;;;;11.80;8.05;;;4.90;99.90;;;;;;2088287;28;20317;-70
2023/10/18 00:40:40;;;;;;;10.27;7.33;;;4.90;99.90;;;;;;2089893;28;20235;-70
2023/10/18 00:41:44;;;;;;;11.80;8.45;;;4.80;99.90;;;;;;2087689;28;20606;-70
2023/10/18 00:42:45;;;;;;;11.70;7.57;;;4.80;99.90;;;;;;2087850;28;20242;-69
2023/10/18 00:43:45;;;;;;;10.63;7.43;;;4.80;99.90;;;;;;2071897;28;20699;-70
2023/10/18 00:45:01;;;;;;;9.37;7.57;;;4.80;99.90;;;;;;2080083;28;20246;-70
2023/10/18 00:46:06;;;;;;;12.82;8.30;;;4.70;99.90;;;;;;2075261;28;20312;-70
2023/10/18 00:47:08;;;;;;;11.35;8.05;;;4.70;99.90;;;;;;2077155;28;20224;-70
2023/10/18 00:48:11;;;;;;;11.65;8.43;;;4.90;99.90;;;;;;2085299;28;20657;-70
2023/10/18 00:49:14;;;;;;;11.13;8.35;;;4.90;99.90;;;;;;2083033;28;20199;-70
2023/10/18 00:50:18;;;;;;;11.95;8.15;;;4.90;99.90;;;;;;2088656;28;20184;-70
2023/10/18 00:51:19;;;;;;;13.18;8.43;;;5.00;99.90;;;;;;2086761;28;20184;-70
2023/10/18 00:52:23;;;;;;;11.88;7.50;;;4.90;99.90;;;;;;2088847;28;20207;-69
2023/10/18 00:53:25;;;;;;;11.13;8.40;;;4.90;99.90;;;;;;2085524;28;20198;-70
2023/10/18 00:54:26;;;;;;;12.88;8.88;;;4.90;99.90;;;;;;2077014;28;20231;-70
2023/10/18 00:55:26;;;;;;;13.38;9.65;;;4.90;99.90;;;;;;2073391;28;20249;-70
2023/10/18 00:56:27;;;;;;;13.70;9.67;;;4.90;99.90;;;;;;2080861;28;20240;-69
2023/10/18 00:57:34;;;;;;;14.37;9.63;;;4.90;99.90;;;;;;2088842;28;20785;-70
2023/10/18 00:58:35;;;;;;;10.77;7.93;;;4.90;99.90;;;;;;2088923;28;20606;-70
2023/10/18 00:59:38;;;;;;;13.10;8.30;;;4.90;99.90;;;;;;2077688;28;20236;-70
2023/10/18 01:00:41;;;;;;;12.48;9.10;;;4.90;99.90;;;;;;2078481;28;20220;-70
2023/10/18 01:01:44;;;;;;;12.07;8.45;;;5.00;99.90;;;;;;2085091;28;20693;-70
2023/10/18 01:02:48;;;;;;;10.73;8.02;;;5.00;99.90;;;;;;2086170;28;20871;-70
2023/10/18 01:03:49;;;;;;;10.35;7.60;;;4.90;99.90;;;;;;2085171;28;20751;-70
2023/10/18 01:04:52;;;;;;;10.43;8.23;;;5.00;99.90;;;;;;2077431;28;20249;-70
2023/10/18 01:05:58;;;;;;;11.30;8.70;;;4.90;99.90;;;;;;2077240;28;20232;-71
2023/10/18 01:07:05;;;;;;;11.10;8.82;;;4.80;99.90;;;;;;2077232;28;20319;-70
2023/10/18 01:08:09;;;;;;;11.95;8.32;;;4.70;99.90;;;;;;2068999;28;20459;-70
2023/10/18 01:09:15;;;;;;;12.65;8.65;;;4.70;99.90;;;;;;2082892;28;20191;-70
2023/10/18 01:10:18;;;;;;;12.27;8.27;;;4.80;99.90;;;;;;2086406;28;20188;-70
2023/10/18 01:11:23;;;;;;;11.43;7.97;;;4.80;99.90;;;;;;2088027;28;20204;-70
2023/10/18 01:12:25;;;;;;;10.45;8.35;;;4.80;99.90;;;;;;2086032;28;20239;-70
2023/10/18 01:13:25;;;;;;;10.57;7.70;;;4.80;99.90;;;;;;2078916;28;20288;-70
2023/10/18 01:14:27;;;;;;;11.80;7.47;;;4.80;99.90;;;;;;2076768;28;20282;-70
2023/10/18 01:15:28;;;;;;;10.57;7.50;;;4.90;99.90;;;;;;2074492;28;20263;-70
2023/10/18 01:16:35;;;;;;;10.87;8.27;;;4.90;99.90;;;;;;2079457;28;20246;-70
2023/10/18 01:17:42;;;;;;;10.80;7.03;;;4.90;99.90;;;;;;2077489;28;20220;-70
2023/10/18 01:18:44;;;;;;;11.23;7.30;;;5.00;99.90;;;;;;2079133;28;20299;-70
2023/10/18 01:19:46;;;;;;;8.43;6.18;;;4.90;99.90;;;;;;2082263;28;20660;-70
2023/10/18 01:20:47;;;;;;;9.60;7.00;;;4.90;99.90;;;;;;2086762;28;20801;-69
2023/10/18 01:21:51;;;;;;;9.87;7.30;;;4.90;99.90;;;;;;2080462;28;20231;-69
2023/10/18 01:22:52;;;;;;;9.32;7.22;;;4.80;99.90;;;;;;2080290;28;20240;-70
2023/10/18 01:23:54;;;;;;;10.27;6.60;;;4.80;99.90;;;;;;2086296;28;20223;-70
2023/10/18 01:24:57;;;;;;;9.07;6.72;;;4.80;99.90;;;;;;2083120;28;20319;-70
2023/10/18 01:25:59;;;;;;;9.90;6.95;;;4.90;99.90;;;;;;2079076;28;20269;-70
2023/10/18 01:27:00;;;;;;;10.25;6.57;;;4.90;99.90;;;;;;2078630;28;20228;-70
2023/10/18 01:28:01;;;;;;;8.00;6.35;;;4.90;99.90;;;;;;2087741;28;20232;-70
2023/10/18 01:29:08;;;;;;;11.27;6.73;;;4.90;99.90;;;;;;2087587;28;20231;-71
2023/10/18 01:30:09;;;;;;;11.50;6.45;;;4.90;99.90;;;;;;2085979;28;20235;-70
2023/10/18 01:31:12;;;;;;;11.75;6.90;;;4.90;99.90;;;;;;2085069;28;20608;-70
2023/10/18 01:32:13;;;;;;;10.90;7.28;;;4.90;99.90;;;;;;2077285;28;20230;-70
2023/10/18 01:33:15;;;;;;;9.48;6.40;;;4.90;99.90;;;;;;2076432;28;20185;-71
2023/10/18 01:34:16;;;;;;;9.18;6.53;;;5.00;99.90;;;;;;2086072;28;20187;-70
2023/10/18 01:35:17;;;;;;;9.48;7.00;;;4.90;99.90;;;;;;2078712;28;20296;-71
2023/10/18 01:36:20;;;;;;;9.20;5.77;;;4.80;99.90;;;;;;2078715;28;20766;-70
2023/10/18 01:37:22;;;;;;;8.38;5.88;;;4.90;99.90;;;;;;2082778;28;20267;-70
2023/10/18 01:38:29;;;;;;;8.05;5.90;;;4.90;99.90;;;;;;2083183;28;20386;-70
2023/10/18 01:39:31;;;;;;;7.35;5.85;;;4.90;99.90;;;;;;2084860;28;20740;-70
2023/10/18 01:40:44;;;;;;;9.52;5.55;;;4.80;99.90;;;;;;2086187;28;20294;-70
2023/10/18 01:41:49;;;;;;;9.02;6.65;;;4.80;99.90;;;;;;2087098;28;20237;-70
2023/10/18 01:42:57;;;;;;;9.57;6.40;;;4.90;99.90;;;;;;2081750;28;20243;-70
2023/10/18 01:44:06;;;;;;;7.22;6.07;;;4.90;99.90;;;;;;2085306;28;20232;-71
2023/10/18 01:45:07;;;;;;;9.32;6.30;;;4.80;99.90;;;;;;2079465;28;20230;-71
2023/10/18 01:46:13;;;;;;;7.15;5.47;;;4.90;99.90;;;;;;2086213;28;20200;-71
2023/10/18 01:47:14;;;;;;;8.35;6.05;;;4.90;99.90;;;;;;2081881;28;20697;-70
2023/10/18 01:48:18;;;;;;;10.80;6.28;;;4.80;99.90;;;;;;2070061;28;20197;-71
2023/10/18 01:49:21;;;;;;;8.98;6.05;;;4.80;99.90;;;;;;2079544;28;20265;-71
2023/10/18 01:50:22;;;;;;;9.40;6.10;;;4.70;99.90;;;;;;2084949;28;20218;-70
2023/10/18 01:51:23;;;;;;;8.47;6.00;;;4.80;99.90;;;;;;2082093;28;20559;-71
2023/10/18 01:52:24;;;;;;;7.83;6.43;;;4.70;99.90;;;;;;2085253;28;20203;-70
2023/10/18 01:53:26;;;;;;;9.25;6.60;;;4.70;99.90;;;;;;2086880;28;20255;-70
2023/10/18 01:54:27;;;;;;;10.80;6.82;;;4.60;99.90;;;;;;2080033;28;20224;-70
2023/10/18 01:55:31;;;;;;;10.10;6.73;;;4.50;99.90;;;;;;2072819;28;20227;-70
2023/10/18 01:56:32;;;;;;;11.13;7.07;;;4.50;99.90;;;;;;2078719;28;20287;-70
2023/10/18 01:57:32;;;;;;;8.33;6.20;;;4.50;99.90;;;;;;2086937;28;20757;-70
2023/10/18 01:58:35;;;;;;;10.60;6.87;;;4.60;99.90;;;;;;2085491;28;20235;-71
2023/10/18 01:59:36;;;;;;;8.27;6.28;;;4.70;99.90;;;;;;2090005;28;20262;-70
2023/10/18 02:00:41;;;;;;;9.15;6.78;;;4.60;99.90;;;;;;2089247;28;20722;-71
2023/10/18 02:01:45;;;;;;;7.80;6.43;;;4.70;99.90;;;;;;2087639;28;20231;-70
2023/10/18 02:02:48;;;;;;;7.13;5.97;;;4.70;99.90;;;;;;2088008;28;20235;-70
2023/10/18 02:03:53;;;;;;;9.63;6.45;;;4.70;99.90;;;;;;2088765;28;20231;-70
2023/10/18 02:04:56;;;;;;;8.18;6.15;;;4.70;99.90;;;;;;2085728;28;20289;-70
2023/10/18 02:05:57;;;;;;;7.55;5.57;;;4.70;99.90;;;;;;2083730;28;20906;-70
2023/10/18 02:06:59;;;;;;;9.17;6.13;;;4.80;99.90;;;;;;2085107;28;20249;-70
2023/10/18 02:08:01;;;;;;;8.45;6.25;;;4.70;99.90;;;;;;2087071;28;20717;-70
2023/10/18 02:09:04;;;;;;;8.60;5.68;;;4.70;99.90;;;;;;2078416;28;20228;-70
2023/10/18 02:10:06;;;;;;;9.60;6.15;;;4.80;99.90;;;;;;2079952;28;20216;-70
2023/10/18 02:11:08;;;;;;;8.88;6.32;;;4.80;99.90;;;;;;2087311;28;20195;-70
2023/10/18 02:12:10;;;;;;;9.13;6.32;;;4.70;99.90;;;;;;2084133;28;20286;-71
2023/10/18 02:13:15;;;;;;;9.10;6.25;;;4.70;99.90;;;;;;2087575;28;20198;-70
2023/10/18 02:14:15;;;;;;;7.65;6.10;;;4.70;99.90;;;;;;2080143;28;20247;-70
2023/10/18 02:15:16;;;;;;;7.50;5.50;;;4.70;99.90;;;;;;2077397;28;20626;-70
2023/10/18 02:16:19;;;;;;;9.30;6.25;;;4.60;99.90;;;;;;2071815;28;20185;-70
2023/10/18 02:17:21;;;;;;;8.10;6.38;;;4.50;99.90;;;;;;2064525;28;20203;-70
2023/10/18 02:18:23;;;;;;;9.93;6.28;;;4.60;99.90;;;;;;2081059;28;20271;-70
2023/10/18 02:19:24;;;;;;;11.07;6.68;;;4.60;99.90;;;;;;2088837;28;20221;-71
2023/10/18 02:20:27;;;;;;;8.20;6.27;;;4.60;99.90;;;;;;2087484;28;20230;-70
2023/10/18 02:21:28;;;;;;;11.20;6.95;;;4.70;99.90;;;;;;2084349;28;20258;-70
2023/10/18 02:22:29;;;;;;;10.70;6.30;;;4.70;99.90;;;;;;2075512;28;20243;-70
2023/10/18 02:23:34;;;;;;;9.73;6.40;;;4.70;99.90;;;;;;2080378;28;20606;-70
2023/10/18 02:24:36;;;;;;;8.75;6.47;;;4.80;99.90;;;;;;2086557;28;20649;-70
2023/10/18 02:25:44;;;;;;;8.70;5.72;;;4.80;99.90;;;;;;2086448;28;20234;-70
2023/10/18 02:26:53;;;;;;;11.07;6.72;;;4.80;99.90;;;;;;2088921;28;20255;-70
2023/10/18 02:27:54;;;;;;;7.32;5.38;;;4.80;99.90;;;;;;2078035;28;20285;-71
2023/10/18 02:28:55;;;;;;;8.47;6.33;;;4.90;99.90;;;;;;2077452;28;20572;-70
2023/10/18 02:29:55;;;;;;;9.23;6.37;;;4.90;99.90;;;;;;2086783;28;20227;-70
2023/10/18 02:31:07;;;;;;;9.10;6.77;;;4.90;99.90;;;;;;2080157;28;20232;-70
2023/10/18 02:32:23;;;;;;;9.52;6.22;;;4.80;99.90;;;;;;2075911;28;20240;-71
2023/10/18 02:33:36;;;;;;;9.88;7.05;;;4.80;99.90;;;;;;2086085;28;20200;-70
2023/10/18 02:34:38;;;;;;;11.07;7.28;;;4.70;99.90;;;;;;2082599;28;20278;-70
2023/10/18 02:35:43;;;;;;;10.70;6.93;;;4.70;99.90;;;;;;2080635;28;20299;-70
2023/10/18 02:36:48;;;;;;;11.18;7.00;;;4.70;99.90;;;;;;2088079;28;20231;-70
2023/10/18 02:37:51;;;;;;;11.18;6.80;;;4.70;99.90;;;;;;2078854;28;20700;-71
2023/10/18 02:38:55;;;;;;;8.45;6.47;;;4.60;99.90;;;;;;2088560;28;20238;-70
2023/10/18 02:40:07;;;;;;;8.30;6.28;;;4.70;99.90;;;;;;2085366;28;20231;-70
2023/10/18 02:41:26;;;;;;;7.60;6.78;;;4.70;99.90;;;;;;2081667;28;20232;-71
2023/10/18 02:42:28;;;;;;;9.13;6.10;;;4.80;99.90;;;;;;2078557;28;20293;-70
2023/10/18 02:43:29;;;;;;;10.20;6.38;;;4.90;99.90;;;;;;2083364;28;20237;-70
2023/10/18 02:44:33;;;;;;;9.40;6.57;;;4.90;99.90;;;;;;2086975;28;20732;-71
2023/10/18 02:45:34;;;;;;;8.70;6.75;;;4.80;99.90;;;;;;2089801;28;20235;-70
2023/10/18 02:46:34;;;;;;;9.27;6.20;;;4.70;99.90;;;;;;2088934;28;20666;-70
2023/10/18 02:47:35;;;;;;;11.53;6.53;;;4.80;99.90;;;;;;2088898;28;20235;-70
2023/10/18 02:48:36;;;;;;;7.47;6.10;;;4.80;99.90;;;;;;2090218;28;20317;-70
2023/10/18 02:49:36;;;;;;;10.27;6.40;;;4.70;99.90;;;;;;2089840;28;20357;-70
2023/10/18 02:50:38;;;;;;;9.63;6.70;;;4.80;99.90;;;;;;2089317;28;20238;-70
2023/10/18 02:51:40;;;;;;;7.38;6.05;;;4.80;99.90;;;;;;2072134;28;20236;-71
2023/10/18 02:52:41;;;;;;;10.07;6.55;;;4.80;99.90;;;;;;2079107;28;20319;-70
2023/10/18 02:53:42;;;;;;;9.48;6.63;;;4.80;99.90;;;;;;2069432;28;20230;-70
2023/10/18 02:54:45;;;;;;;8.40;6.00;;;4.90;99.90;;;;;;2076163;28;20229;-70
2023/10/18 02:55:54;;;;;;;7.93;5.95;;;4.80;99.90;;;;;;2088086;28;20569;-70
2023/10/18 02:56:55;;;;;;;7.68;6.00;;;4.90;99.90;;;;;;2088604;28;20306;-70
2023/10/18 02:57:56;;;;;;;9.88;5.78;;;4.90;99.90;;;;;;2088522;28;20234;-69
2023/10/18 02:58:58;;;;;;;7.50;5.30;;;4.90;99.90;;;;;;2088814;28;20673;-70
2023/10/18 03:00:09;;;;;;;8.48;5.60;;;4.90;99.90;;;;;;2088934;28;20235;-70
2023/10/18 03:01:14;;;;;;;7.75;5.45;;;4.80;99.90;;;;;;2076424;28;20616;-70
2023/10/18 03:02:14;;;;;;;8.65;5.95;;;4.80;99.90;;;;;;2080676;28;20220;-70
2023/10/18 03:03:15;;;;;;;7.30;5.60;;;4.80;99.90;;;;;;2079359;28;20201;-70
2023/10/18 03:04:16;;;;;;;9.63;5.93;;;4.80;99.90;;;;;;2080139;28;20200;-70
2023/10/18 03:05:20;;;;;;;7.65;5.53;;;4.80;99.90;;;;;;2089019;28;20202;-70
2023/10/18 03:06:24;;;;;;;7.85;5.53;;;4.90;99.90;;;;;;2085402;28;20184;-70
2023/10/18 03:07:27;;;;;;;8.27;6.30;;;4.80;99.90;;;;;;2076901;28;20654;-70
2023/10/18 03:08:28;;;;;;;8.60;5.85;;;4.80;99.90;;;;;;2082152;28;20733;-71
2023/10/18 03:10:47;;;;;;;7.25;5.60;;;4.60;99.90;;;;;;2080112;28;20240;-70
2023/10/18 03:11:47;;;;;;;8.05;5.82;;;4.60;99.90;;;;;;2087608;28;20232;-70
2023/10/18 03:12:49;;;;;;;7.40;5.97;;;4.70;99.90;;;;;;2085323;28;20243;-70
2023/10/18 03:13:51;;;;;;;7.82;6.07;;;4.70;99.90;;;;;;2079146;28;20227;-70
2023/10/18 03:14:54;;;;;;;9.70;5.47;;;4.80;99.90;;;;;;2080056;28;20224;-71
2023/10/18 03:16:05;;;;;;;8.15;5.85;;;4.80;99.90;;;;;;2076713;28;20274;-71
2023/10/18 03:18:18;;;;;;;6.38;4.85;;;4.80;99.90;;;;;;2083987;28;20200;-70
2023/10/18 03:19:19;;;;;;;9.90;5.65;;;4.80;99.90;;;;;;2088501;28;20244;-71
2023/10/18 03:20:23;;;;;;;10.63;6.03;;;4.70;99.90;;;;;;2088802;28;20192;-70
2023/10/18 03:21:25;;;;;;;8.57;5.93;;;4.80;99.90;;;;;;2075939;28;20189;-71
2023/10/18 03:22:31;;;;;;;8.50;6.10;;;4.80;99.90;;;;;;2076529;28;20603;-70
2023/10/18 03:23:31;;;;;;;8.68;6.25;;;4.80;99.90;;;;;;2085550;28;20228;-70
2023/10/18 03:24:32;;;;;;;8.00;5.80;;;4.80;99.90;;;;;;2087876;28;20251;-71
2023/10/18 03:25:34;;;;;;;7.13;5.53;;;4.90;99.90;;;;;;2080065;28;20229;-70
2023/10/18 03:26:35;;;;;;;7.43;5.60;;;4.90;99.90;;;;;;2077629;28;20930;-70
2023/10/18 03:27:41;;;;;;;6.55;5.55;;;4.90;99.90;;;;;;2089048;28;20239;-71
2023/10/18 03:28:43;;;;;;;6.93;5.57;;;5.00;99.90;;;;;;2076759;28;20324;-70
2023/10/18 03:29:45;;;;;;;8.35;5.35;;;5.00;99.90;;;;;;2079550;28;20319;-71
2023/10/18 03:30:45;;;;;;;7.28;5.40;;;5.00;99.90;;;;;;2087190;28;20311;-70
2023/10/18 03:31:47;;;;;;;6.70;4.67;;;5.00;99.90;;;;;;2082931;28;20656;-71
2023/10/18 03:32:50;;;;;;;8.18;5.95;;;5.00;99.90;;;;;;2087209;28;20227;-70
2023/10/18 03:34:03;;;;;;;6.45;5.20;;;4.90;99.90;;;;;;2087931;28;20235;-70
2023/10/18 03:35:09;;;;;;;7.53;5.47;;;5.00;99.90;;;;;;2079439;28;20228;-70
2023/10/18 03:36:17;;;;;;;10.52;6.43;;;4.90;99.90;;;;;;2074302;28;20727;-72
2023/10/18 03:37:39;;;;;;;8.73;6.05;;;4.90;99.90;;;;;;2071799;28;20189;-71
2023/10/18 03:38:41;;;;;;;9.48;6.65;;;4.90;99.90;;;;;;2070508;28;20721;-71
2023/10/18 03:39:42;;;;;;;9.40;6.30;;;4.90;99.90;;;;;;2085805;28;20251;-70
2023/10/18 03:40:47;;;;;;;9.93;6.53;;;4.90;99.90;;;;;;2085324;28;20597;-70
2023/10/18 03:41:50;;;;;;;10.07;6.53;;;4.90;99.90;;;;;;2087403;28;20269;-70
2023/10/18 03:42:51;;;;;;;9.40;6.13;;;5.00;99.90;;;;;;2086328;28;20694;-70
2023/10/18 03:44:06;;;;;;;7.37;5.83;;;5.00;99.90;;;;;;2077596;28;20287;-70
2023/10/18 03:45:20;;;;;;;9.93;6.03;;;5.00;99.90;;;;;;2070521;28;20259;-71
2023/10/18 03:46:28;;;;;;;8.50;5.38;;;5.00;99.90;;;;;;2072193;28;20233;-71
2023/10/18 03:47:36;;;;;;;8.05;5.50;;;4.90;99.90;;;;;;2081754;28;20236;-70
2023/10/18 03:49:10;;;;;;;6.18;4.90;;;4.90;99.90;;;;;;2087916;28;20234;-70
2023/10/18 03:50:14;;;;;;;6.10;5.10;;;5.00;99.90;;;;;;2079538;28;20263;-70
2023/10/18 03:51:23;;;;;;;6.72;4.65;;;4.90;99.90;;;;;;2088282;28;20228;-70
2023/10/18 03:52:26;;;;;;;5.57;4.97;;;4.90;99.90;;;;;;2079103;28;20303;-70
2023/10/18 03:53:27;;;;;;;9.05;5.40;;;5.00;99.90;;;;;;2075055;28;20234;-70
2023/10/18 03:54:35;;;;;;;6.83;4.97;;;5.00;99.90;;;;;;2083432;28;20260;-70
2023/10/18 03:55:42;;;;;;;7.40;5.57;;;4.90;99.90;;;;;;2093122;28;20223;-70
2023/10/18 03:56:44;;;;;;;5.90;4.57;;;4.90;99.90;;;;;;2091411;28;20665;-70
2023/10/18 03:57:45;;;;;;;6.03;4.90;;;4.90;99.90;;;;;;2084035;28;20239;-70
2023/10/18 03:58:49;;;;;;;6.03;5.00;;;4.80;99.90;;;;;;2078205;28;20232;-71
2023/10/18 03:59:52;;;;;;;6.32;5.20;;;4.80;99.90;;;;;;2073063;28;20233;-70
2023/10/18 04:00:56;;;;;;;8.88;5.63;;;4.70;99.90;;;;;;2080566;28;20247;-70
2023/10/18 04:02:15;;;;;;;7.15;5.47;;;4.80;99.90;;;;;;2086660;28;20735;-71
2023/10/18 04:03:20;;;;;;;12.45;5.90;;;4.80;99.90;;;;;;2085019;28;20258;-70
2023/10/18 04:04:21;;;;;;;8.27;6.18;;;4.70;99.90;;;;;;2086542;28;20241;-70
2023/10/18 04:06:42;;;;;;;7.68;5.88;;;4.80;99.90;;;;;;2080682;28;20232;-71
2023/10/18 04:07:43;;;;;;;9.65;6.15;;;4.80;99.90;;;;;;2086418;28;20230;-70
2023/10/18 04:08:43;;;;;;;6.97;5.53;;;4.70;99.90;;;;;;2088473;28;20232;-70
2023/10/18 04:09:47;;;;;;;9.60;5.50;;;4.70;99.90;;;;;;2068141;28;20722;-70
2023/10/18 04:10:58;;;;;;;7.55;6.18;;;4.70;99.90;;;;;;2072822;28;20696;-71
2023/10/18 04:12:00;;;;;;;7.68;5.95;;;4.80;99.90;;;;;;2087665;28;20238;-71
2023/10/18 04:13:00;;;;;;;7.22;5.75;;;4.90;99.90;;;;;;2084750;28;20286;-70
2023/10/18 04:14:01;;;;;;;7.87;6.30;;;4.90;99.90;;;;;;2085687;28;20239;-70
2023/10/18 04:15:11;;;;;;;7.20;5.57;;;4.90;99.90;;;;;;2071526;28;20232;-71
2023/10/18 04:16:13;;;;;;;8.02;5.72;;;4.90;99.90;;;;;;2068779;28;20225;-70
2023/10/18 04:17:19;;;;;;;8.52;5.32;;;4.90;99.90;;;;;;2079958;28;20184;-70
2023/10/18 04:18:26;;;;;;;7.65;6.70;;;4.90;99.90;;;;;;2081940;28;20189;-70
2023/10/18 04:19:26;;;;;;;10.02;6.38;;;4.90;99.90;;;;;;2078990;28;20731;-70
2023/10/18 04:20:31;;;;;;;7.90;6.80;;;4.80;99.90;;;;;;2075363;28;20236;-70
2023/10/18 04:21:32;;;;;;;7.53;6.35;;;4.80;99.90;;;;;;2079091;28;20236;-71
2023/10/18 04:22:33;;;;;;;9.25;7.10;;;4.80;99.90;;;;;;2085951;28;20249;-70
2023/10/18 04:23:34;;;;;;;7.50;6.70;;;4.80;99.90;;;;;;2087896;28;20289;-71
2023/10/18 04:24:35;;;;;;;8.30;7.07;;;4.90;99.90;;;;;;2081882;28;20248;-70
2023/10/18 04:25:36;;;;;;;8.50;7.03;;;5.00;99.90;;;;;;2074854;28;20233;-71
2023/10/18 04:26:40;;;;;;;9.43;6.65;;;5.10;99.90;;;;;;2088710;28;20289;-71
2023/10/18 04:27:42;;;;;;;8.52;6.43;;;5.10;99.90;;;;;;2089543;28;20252;-71
2023/10/18 04:28:43;;;;;;;10.65;6.65;;;5.10;99.90;;;;;;2083035;28;20302;-71
2023/10/18 04:29:47;;;;;;;8.25;5.88;;;5.00;99.90;;;;;;2079003;28;20225;-71
2023/10/18 04:30:51;;;;;;;7.85;6.07;;;5.00;99.90;;;;;;2085695;28;20219;-71
2023/10/18 04:31:56;;;;;;;9.23;6.13;;;5.20;99.90;;;;;;2086153;28;20278;-71
2023/10/18 04:33:00;;;;;;;6.70;5.32;;;5.20;99.90;;;;;;2088343;28;20274;-71
2023/10/18 04:34:03;;;;;;;6.75;5.50;;;5.30;99.90;;;;;;2079565;28;20698;-71
2023/10/18 04:35:09;;;;;;;7.38;5.50;;;5.40;99.90;;;;;;2083823;28;20282;-71
2023/10/18 04:36:11;;;;;;;6.80;5.15;;;5.40;99.90;;;;;;2086830;28;20227;-71
2023/10/18 04:37:14;;;;;;;7.63;5.13;;;5.40;99.90;;;;;;2088015;28;20176;-71
2023/10/18 04:38:29;;;;;;;9.73;5.70;;;5.30;99.90;;;;;;2087831;28;20219;-71
2023/10/18 04:39:31;;;;;;;7.80;5.10;;;5.40;99.90;;;;;;2075929;28;20259;-71
2023/10/18 04:40:34;;;;;;;7.07;5.18;;;5.50;99.90;;;;;;2076685;28;20715;-71
2023/10/18 04:41:36;;;;;;;7.18;5.28;;;5.50;99.90;;;;;;2085574;28;20698;-71
2023/10/18 04:42:38;;;;;;;6.47;5.47;;;5.70;99.90;;;;;;2078331;28;20287;-71
2023/10/18 04:43:42;;;;;;;6.63;5.10;;;5.70;99.90;;;;;;2076017;28;20243;-71
2023/10/18 04:44:48;;;;;;;7.50;5.38;;;5.70;99.90;;;;;;2079897;28;20239;-71
2023/10/18 04:45:57;;;;;;;6.53;5.55;;;5.70;99.90;;;;;;2079451;28;20232;-71
2023/10/18 04:46:59;;;;;;;9.73;6.35;;;5.60;99.90;;;;;;2077667;28;21016;-71
2023/10/18 04:48:06;;;;;;;7.18;6.00;;;5.60;99.90;;;;;;2071701;28;20234;-71
2023/10/18 04:50:18;;;;;;;7.68;6.55;;;5.60;99.90;;;;;;2079580;28;20274;-71
2023/10/18 04:52:40;;;;;;;8.00;6.20;;;5.60;99.90;;;;;;2087815;28;20262;-71
2023/10/18 04:53:42;;;;;;;8.63;6.43;;;5.70;99.90;;;;;;2085205;28;20224;-71
2023/10/18 04:54:53;;;;;;;9.48;6.38;;;5.70;99.90;;;;;;2083844;28;20225;-71
2023/10/18 04:55:54;;;;;;;8.35;6.60;;;5.60;99.90;;;;;;2079562;28;20320;-71
2023/10/18 04:56:56;;;;;;;7.30;6.33;;;5.60;99.90;;;;;;2079422;28;20698;-71
2023/10/18 04:57:57;;;;;;;8.02;6.22;;;5.50;99.90;;;;;;2075227;28;20289;-71
2023/10/18 04:59:09;;;;;;;9.70;6.40;;;5.60;99.90;;;;;;2075679;28;20284;-71
2023/10/18 05:00:27;;;;;;;6.60;5.90;;;5.50;99.90;;;;;;2083557;28;20223;-71
2023/10/18 05:01:36;;;;;;;8.43;6.10;;;5.50;99.90;;;;;;2078826;28;20232;-71
2023/10/18 05:02:38;;;;;;;7.57;6.32;;;5.50;99.90;;;;;;2072317;28;20734;-71
2023/10/18 05:03:39;;;;;;;9.15;6.75;;;5.50;99.90;;;;;;2079914;28;20701;-72
2023/10/18 05:04:40;;;;;;;8.30;6.43;;;5.50;99.90;;;;;;2078235;28;20367;-71
2023/10/18 05:05:44;;;;;;;8.23;6.50;;;5.50;99.90;;;;;;2079464;28;20315;-71
2023/10/18 05:06:54;;;;;;;7.72;6.40;;;5.40;99.90;;;;;;2078787;28;20257;-71
2023/10/18 05:07:54;;;;;;;7.63;6.28;;;5.40;99.90;;;;;;2073161;28;20240;-71
2023/10/18 05:08:56;;;;;;;9.97;7.13;;;5.40;99.90;;;;;;2079592;28;20596;-71
2023/10/18 05:09:56;;;;;;;12.95;10.25;;;5.40;99.90;;;;;;2085952;28;20724;-71
2023/10/18 05:11:22;;;;;;;14.00;10.90;;;5.50;99.90;;;;;;2075580;28;20256;-71
2023/10/18 05:13:21;;;;;;;21.75;15.98;;;5.60;99.90;;;;;;2084248;28;20260;-71
2023/10/18 05:14:35;;;;;;;16.75;13.70;;;5.60;99.90;;;;;;2078246;28;20561;-70
2023/10/18 05:15:36;;;;;;;19.05;13.57;;;5.50;99.90;;;;;;2081157;28;20240;-70
2023/10/18 05:16:39;;;;;;;31.73;20.97;;;5.60;99.90;;;;;;2079927;28;20763;-71
2023/10/18 05:17:42;;;;;;;24.08;17.67;;;5.60;99.90;;;;;;2079139;28;20224;-72
2023/10/18 05:18:46;;;;;;;19.23;14.95;;;5.70;99.90;;;;;;2086681;28;20234;-71
2023/10/18 05:19:47;;;;;;;16.33;12.73;;;5.70;99.90;;;;;;2076309;28;20232;-71
2023/10/18 05:20:56;;;;;;;15.68;11.98;;;5.80;99.90;;;;;;2080888;28;20228;-71
2023/10/18 05:21:56;;;;;;;18.20;13.73;;;5.90;99.90;;;;;;2081814;28;20221;-71
2023/10/18 05:22:59;;;;;;;18.70;15.20;;;5.80;99.90;;;;;;2073976;28;21691;-71
2023/10/18 05:24:00;;;;;;;16.98;15.18;;;5.90;99.90;;;;;;2081881;28;20259;-71
2023/10/18 05:26:20;;;;;;;14.73;12.10;;;5.90;99.90;;;;;;2081530;28;20328;-71
2023/10/18 05:27:27;;;;;;;15.60;11.63;;;5.90;99.90;;;;;;2087977;28;20541;-71
2023/10/18 05:28:28;;;;;;;13.25;9.30;;;6.00;99.90;;;;;;2086858;28;20659;-71
2023/10/18 05:29:34;;;;;;;9.50;7.13;;;5.90;99.90;;;;;;2088428;28;20604;-71
2023/10/18 05:32:27;;;;;;;17.85;13.75;;;5.80;99.90;;;;;;2086572;28;20228;-71
2023/10/18 05:34:51;;;;;;;13.65;9.75;;;5.60;99.90;;;;;;2087095;28;20239;-71
2023/10/18 05:35:56;;;;;;;14.32;10.85;;;5.70;99.90;;;;;;2085274;28;20270;-71
2023/10/18 05:36:58;;;;;;;12.40;10.65;;;5.70;99.90;;;;;;2079433;28;20232;-71
2023/10/18 05:38:06;;;;;;;13.48;11.70;;;5.80;99.90;;;;;;2079834;28;20690;-71
2023/10/18 05:41:51;;;;;;;13.95;10.82;;;5.80;99.90;;;;;;2086426;28;20235;-71
2023/10/18 05:42:51;;;;;;;15.82;11.00;;;5.80;99.90;;;;;;2088832;28;20223;-71
2023/10/18 05:43:53;;;;;;;11.97;9.70;;;5.80;99.90;;;;;;2077962;28;20233;-71
2023/10/18 05:44:53;;;;;;;16.80;13.10;;;5.70;99.90;;;;;;2081552;28;20236;-71
2023/10/18 05:46:07;;;;;;;20.30;16.07;;;5.60;99.90;;;;;;2081184;28;20232;-71
2023/10/18 05:47:08;;;;;;;18.10;14.57;;;5.60;99.90;;;;;;2079060;28;20319;-71
2023/10/18 05:48:22;;;;;;;18.43;15.70;;;5.50;99.90;;;;;;2085210;28;20212;-70